sensor_id;sensor_type;location;lat;lon;timestamp;P1;durP1;ratioP1;P2;durP2;ratioP2
48205;SDS011;33995;48.202;16.260;2024-03-07T00:00:59;23.40;;;19.50;;
48205;SDS011;33995;48.202;16.260;2024-03-07T00:03:26;24.63;;;19.63;;
48205;SDS011;33995;48.202;16.260;2024-03-07T00:05:55;24.03;;;19.77;;
48205;SDS011;33995;48.202;16.260;2024-03-07T00:08:25;23.67;;;20.30;;
48205;SDS011;33995;48.202;16.260;2024-03-07T00:10:53;24.33;;;19.83;;
48205;SDS011;33995;48.202;16.260;2024-03-07T00:13:20;23.37;;;20.07;;
48205;SDS011;33995;48.202;16.260;2024-03-07T00:15:47;24.90;;;20.73;;
48205;SDS011;33995;48.202;16.260;2024-03-07T00:18:14;25.90;;;21.07;;
48205;SDS011;33995;48.202;16.260;2024-03-07T00:20:42;24.13;;;20.33;;
48205;SDS011;33995;48.202;16.260;2024-03-07T00:23:09;23.17;;;20.10;;
48205;SDS011;33995;48.202;16.260;2024-03-07T00:25:36;25.07;;;21.13;;
48205;SDS011;33995;48.202;16.260;2024-03-07T00:28:05;24.43;;;20.17;;
48205;SDS011;33995;48.202;16.260;2024-03-07T00:30:33;25.03;;;20.43;;
48205;SDS011;33995;48.202;16.260;2024-03-07T00:33:00;24.13;;;20.77;;
48205;SDS011;33995;48.202;16.260;2024-03-07T00:35:27;24.43;;;20.83;;
48205;SDS011;33995;48.202;16.260;2024-03-07T00:37:55;27.97;;;20.93;;
48205;SDS011;33995;48.202;16.260;2024-03-07T00:40:22;25.87;;;21.03;;
48205;SDS011;33995;48.202;16.260;2024-03-07T00:42:53;26.40;;;21.90;;
48205;SDS011;33995;48.202;16.260;2024-03-07T00:45:20;24.90;;;21.90;;
48205;SDS011;33995;48.202;16.260;2024-03-07T00:47:47;24.63;;;21.57;;
48205;SDS011;33995;48.202;16.260;2024-03-07T00:50:15;25.50;;;21.57;;
48205;SDS011;33995;48.202;16.260;2024-03-07T00:52:42;25.60;;;21.33;;
48205;SDS011;33995;48.202;16.260;2024-03-07T00:55:09;24.07;;;20.50;;
48205;SDS011;33995;48.202;16.260;2024-03-07T00:57:36;26.30;;;22.00;;
48205;SDS011;33995;48.202;16.260;2024-03-07T01:00:04;25.93;;;21.73;;
48205;SDS011;33995;48.202;16.260;2024-03-07T01:02:38;27.03;;;21.97;;
48205;SDS011;33995;48.202;16.260;2024-03-07T01:05:10;27.00;;;22.67;;
48205;SDS011;33995;48.202;16.260;2024-03-07T01:07:40;28.57;;;22.63;;
48205;SDS011;33995;48.202;16.260;2024-03-07T01:10:07;27.00;;;22.37;;
48205;SDS011;33995;48.202;16.260;2024-03-07T01:12:36;25.57;;;22.27;;
48205;SDS011;33995;48.202;16.260;2024-03-07T01:15:06;25.73;;;21.87;;
48205;SDS011;33995;48.202;16.260;2024-03-07T01:17:35;23.63;;;20.70;;
48205;SDS011;33995;48.202;16.260;2024-03-07T01:20:02;23.80;;;20.37;;
48205;SDS011;33995;48.202;16.260;2024-03-07T01:22:32;23.17;;;20.40;;
48205;SDS011;33995;48.202;16.260;2024-03-07T01:25:00;24.87;;;21.27;;
48205;SDS011;33995;48.202;16.260;2024-03-07T01:27:27;26.97;;;22.97;;
48205;SDS011;33995;48.202;16.260;2024-03-07T01:29:55;25.87;;;22.70;;
48205;SDS011;33995;48.202;16.260;2024-03-07T01:32:22;25.70;;;22.43;;
48205;SDS011;33995;48.202;16.260;2024-03-07T01:34:52;27.30;;;22.37;;
48205;SDS011;33995;48.202;16.260;2024-03-07T01:37:19;26.93;;;22.67;;
48205;SDS011;33995;48.202;16.260;2024-03-07T01:39:46;27.97;;;23.00;;
48205;SDS011;33995;48.202;16.260;2024-03-07T01:42:16;26.47;;;22.80;;
48205;SDS011;33995;48.202;16.260;2024-03-07T01:44:46;27.20;;;23.23;;
48205;SDS011;33995;48.202;16.260;2024-03-07T01:47:18;26.07;;;22.97;;
48205;SDS011;33995;48.202;16.260;2024-03-07T01:49:45;26.97;;;23.47;;
48205;SDS011;33995;48.202;16.260;2024-03-07T01:52:12;27.37;;;23.40;;
48205;SDS011;33995;48.202;16.260;2024-03-07T01:54:40;29.47;;;24.80;;
48205;SDS011;33995;48.202;16.260;2024-03-07T01:57:08;27.23;;;23.10;;
48205;SDS011;33995;48.202;16.260;2024-03-07T01:59:36;27.23;;;23.07;;
48205;SDS011;33995;48.202;16.260;2024-03-07T02:02:04;28.63;;;24.50;;
48205;SDS011;33995;48.202;16.260;2024-03-07T02:04:34;29.10;;;23.03;;
48205;SDS011;33995;48.202;16.260;2024-03-07T02:07:01;27.03;;;23.37;;
48205;SDS011;33995;48.202;16.260;2024-03-07T02:09:28;27.67;;;23.47;;
48205;SDS011;33995;48.202;16.260;2024-03-07T02:11:55;26.97;;;22.90;;
48205;SDS011;33995;48.202;16.260;2024-03-07T02:14:23;28.00;;;23.67;;
48205;SDS011;33995;48.202;16.260;2024-03-07T02:16:50;26.50;;;22.63;;
48205;SDS011;33995;48.202;16.260;2024-03-07T02:19:17;26.13;;;21.80;;
48205;SDS011;33995;48.202;16.260;2024-03-07T02:21:44;26.77;;;22.33;;
48205;SDS011;33995;48.202;16.260;2024-03-07T02:24:11;25.67;;;20.90;;
48205;SDS011;33995;48.202;16.260;2024-03-07T02:26:38;24.53;;;20.93;;
48205;SDS011;33995;48.202;16.260;2024-03-07T02:29:06;26.07;;;20.43;;
48205;SDS011;33995;48.202;16.260;2024-03-07T02:31:34;23.83;;;20.33;;
48205;SDS011;33995;48.202;16.260;2024-03-07T02:34:03;23.93;;;20.00;;
48205;SDS011;33995;48.202;16.260;2024-03-07T02:36:31;23.30;;;19.90;;
48205;SDS011;33995;48.202;16.260;2024-03-07T02:39:01;22.40;;;19.77;;
48205;SDS011;33995;48.202;16.260;2024-03-07T02:41:28;21.77;;;18.97;;
48205;SDS011;33995;48.202;16.260;2024-03-07T02:43:55;21.60;;;18.40;;
48205;SDS011;33995;48.202;16.260;2024-03-07T02:46:22;21.97;;;18.37;;
48205;SDS011;33995;48.202;16.260;2024-03-07T02:48:48;20.60;;;18.03;;
48205;SDS011;33995;48.202;16.260;2024-03-07T02:51:16;21.73;;;17.90;;
48205;SDS011;33995;48.202;16.260;2024-03-07T02:53:43;20.80;;;17.60;;
48205;SDS011;33995;48.202;16.260;2024-03-07T02:56:12;21.50;;;18.33;;
48205;SDS011;33995;48.202;16.260;2024-03-07T02:58:40;23.40;;;18.83;;
48205;SDS011;33995;48.202;16.260;2024-03-07T03:01:07;22.53;;;19.07;;
48205;SDS011;33995;48.202;16.260;2024-03-07T03:03:35;21.23;;;17.97;;
48205;SDS011;33995;48.202;16.260;2024-03-07T03:06:02;20.60;;;18.30;;
48205;SDS011;33995;48.202;16.260;2024-03-07T03:08:37;20.90;;;18.07;;
48205;SDS011;33995;48.202;16.260;2024-03-07T03:11:05;20.63;;;17.87;;
48205;SDS011;33995;48.202;16.260;2024-03-07T03:13:42;20.37;;;17.70;;
48205;SDS011;33995;48.202;16.260;2024-03-07T03:16:10;20.63;;;16.83;;
48205;SDS011;33995;48.202;16.260;2024-03-07T03:18:37;19.57;;;16.43;;
48205;SDS011;33995;48.202;16.260;2024-03-07T03:21:07;20.57;;;17.33;;
48205;SDS011;33995;48.202;16.260;2024-03-07T03:23:34;20.23;;;16.37;;
48205;SDS011;33995;48.202;16.260;2024-03-07T03:26:02;20.93;;;16.93;;
48205;SDS011;33995;48.202;16.260;2024-03-07T03:28:30;18.53;;;15.80;;
48205;SDS011;33995;48.202;16.260;2024-03-07T03:30:58;18.50;;;15.27;;
48205;SDS011;33995;48.202;16.260;2024-03-07T03:33:25;17.87;;;15.50;;
48205;SDS011;33995;48.202;16.260;2024-03-07T03:35:52;19.77;;;16.53;;
48205;SDS011;33995;48.202;16.260;2024-03-07T03:38:22;20.03;;;15.87;;
48205;SDS011;33995;48.202;16.260;2024-03-07T03:40:49;18.43;;;15.57;;
48205;SDS011;33995;48.202;16.260;2024-03-07T03:43:16;18.83;;;15.80;;
48205;SDS011;33995;48.202;16.260;2024-03-07T03:45:43;18.07;;;14.93;;
48205;SDS011;33995;48.202;16.260;2024-03-07T03:48:10;18.60;;;15.83;;
48205;SDS011;33995;48.202;16.260;2024-03-07T03:50:37;17.50;;;14.33;;
48205;SDS011;33995;48.202;16.260;2024-03-07T03:53:04;16.03;;;13.50;;
48205;SDS011;33995;48.202;16.260;2024-03-07T03:55:36;17.37;;;13.77;;
48205;SDS011;33995;48.202;16.260;2024-03-07T03:58:03;15.57;;;13.23;;
48205;SDS011;33995;48.202;16.260;2024-03-07T04:00:32;17.10;;;14.20;;
48205;SDS011;33995;48.202;16.260;2024-03-07T04:03:02;17.70;;;13.97;;
48205;SDS011;33995;48.202;16.260;2024-03-07T04:05:29;15.47;;;13.07;;
48205;SDS011;33995;48.202;16.260;2024-03-07T04:07:57;14.73;;;13.13;;
48205;SDS011;33995;48.202;16.260;2024-03-07T04:10:25;15.20;;;13.20;;
48205;SDS011;33995;48.202;16.260;2024-03-07T04:12:52;15.13;;;12.50;;
48205;SDS011;33995;48.202;16.260;2024-03-07T04:15:19;15.40;;;12.90;;
48205;SDS011;33995;48.202;16.260;2024-03-07T04:17:53;15.60;;;13.63;;
48205;SDS011;33995;48.202;16.260;2024-03-07T04:20:20;15.47;;;12.93;;
48205;SDS011;33995;48.202;16.260;2024-03-07T04:22:47;13.63;;;12.10;;
48205;SDS011;33995;48.202;16.260;2024-03-07T04:25:16;14.23;;;12.00;;
48205;SDS011;33995;48.202;16.260;2024-03-07T04:27:43;15.13;;;12.40;;
48205;SDS011;33995;48.202;16.260;2024-03-07T04:30:13;14.40;;;12.43;;
48205;SDS011;33995;48.202;16.260;2024-03-07T04:32:43;13.40;;;12.00;;
48205;SDS011;33995;48.202;16.260;2024-03-07T04:35:10;15.17;;;12.33;;
48205;SDS011;33995;48.202;16.260;2024-03-07T04:37:42;14.47;;;11.90;;
48205;SDS011;33995;48.202;16.260;2024-03-07T04:40:09;14.00;;;11.60;;
48205;SDS011;33995;48.202;16.260;2024-03-07T04:42:45;15.47;;;12.60;;
48205;SDS011;33995;48.202;16.260;2024-03-07T04:45:13;16.07;;;13.37;;
48205;SDS011;33995;48.202;16.260;2024-03-07T04:47:44;16.10;;;13.00;;
48205;SDS011;33995;48.202;16.260;2024-03-07T04:50:12;15.07;;;12.27;;
48205;SDS011;33995;48.202;16.260;2024-03-07T04:52:45;14.63;;;12.03;;
48205;SDS011;33995;48.202;16.260;2024-03-07T04:55:13;15.23;;;12.80;;
48205;SDS011;33995;48.202;16.260;2024-03-07T04:57:42;13.43;;;11.47;;
48205;SDS011;33995;48.202;16.260;2024-03-07T05:00:10;15.53;;;13.00;;
48205;SDS011;33995;48.202;16.260;2024-03-07T05:02:45;14.27;;;12.03;;
48205;SDS011;33995;48.202;16.260;2024-03-07T05:05:15;13.70;;;12.20;;
48205;SDS011;33995;48.202;16.260;2024-03-07T05:07:49;13.90;;;11.77;;
48205;SDS011;33995;48.202;16.260;2024-03-07T05:10:17;14.40;;;12.13;;
48205;SDS011;33995;48.202;16.260;2024-03-07T05:12:45;15.03;;;12.33;;
48205;SDS011;33995;48.202;16.260;2024-03-07T05:15:12;13.37;;;11.97;;
48205;SDS011;33995;48.202;16.260;2024-03-07T05:17:39;14.57;;;11.93;;
48205;SDS011;33995;48.202;16.260;2024-03-07T05:20:09;14.27;;;11.30;;
48205;SDS011;33995;48.202;16.260;2024-03-07T05:22:38;14.40;;;12.23;;
48205;SDS011;33995;48.202;16.260;2024-03-07T05:25:07;13.83;;;11.73;;
48205;SDS011;33995;48.202;16.260;2024-03-07T05:27:35;14.37;;;12.13;;
48205;SDS011;33995;48.202;16.260;2024-03-07T05:30:03;14.17;;;12.43;;
48205;SDS011;33995;48.202;16.260;2024-03-07T05:32:39;14.10;;;12.13;;
48205;SDS011;33995;48.202;16.260;2024-03-07T05:35:06;14.67;;;12.47;;
48205;SDS011;33995;48.202;16.260;2024-03-07T05:37:34;15.33;;;12.67;;
48205;SDS011;33995;48.202;16.260;2024-03-07T05:40:01;15.23;;;12.60;;
48205;SDS011;33995;48.202;16.260;2024-03-07T05:42:30;14.90;;;12.17;;
48205;SDS011;33995;48.202;16.260;2024-03-07T05:44:58;14.07;;;12.50;;
48205;SDS011;33995;48.202;16.260;2024-03-07T05:47:27;14.60;;;12.53;;
48205;SDS011;33995;48.202;16.260;2024-03-07T05:49:54;14.57;;;12.70;;
48205;SDS011;33995;48.202;16.260;2024-03-07T05:52:21;15.30;;;12.80;;
48205;SDS011;33995;48.202;16.260;2024-03-07T05:54:48;14.13;;;11.97;;
48205;SDS011;33995;48.202;16.260;2024-03-07T05:57:14;15.77;;;12.87;;
48205;SDS011;33995;48.202;16.260;2024-03-07T05:59:46;13.60;;;11.93;;
48205;SDS011;33995;48.202;16.260;2024-03-07T06:02:14;14.53;;;12.20;;
48205;SDS011;33995;48.202;16.260;2024-03-07T06:04:42;14.13;;;12.10;;
48205;SDS011;33995;48.202;16.260;2024-03-07T06:07:10;13.23;;;11.60;;
48205;SDS011;33995;48.202;16.260;2024-03-07T06:09:40;13.53;;;11.90;;
48205;SDS011;33995;48.202;16.260;2024-03-07T06:12:07;13.20;;;11.70;;
48205;SDS011;33995;48.202;16.260;2024-03-07T06:14:48;13.57;;;11.57;;
48205;SDS011;33995;48.202;16.260;2024-03-07T06:17:16;13.00;;;11.60;;
48205;SDS011;33995;48.202;16.260;2024-03-07T06:19:48;13.77;;;12.23;;
48205;SDS011;33995;48.202;16.260;2024-03-07T06:22:15;13.13;;;11.30;;
48205;SDS011;33995;48.202;16.260;2024-03-07T06:24:42;14.00;;;11.33;;
48205;SDS011;33995;48.202;16.260;2024-03-07T06:27:11;13.73;;;11.20;;
48205;SDS011;33995;48.202;16.260;2024-03-07T06:29:53;12.93;;;11.50;;
48205;SDS011;33995;48.202;16.260;2024-03-07T06:32:20;13.17;;;11.47;;
48205;SDS011;33995;48.202;16.260;2024-03-07T06:34:50;13.43;;;11.57;;
48205;SDS011;33995;48.202;16.260;2024-03-07T06:37:20;12.93;;;11.37;;
48205;SDS011;33995;48.202;16.260;2024-03-07T06:39:48;12.27;;;10.97;;
48205;SDS011;33995;48.202;16.260;2024-03-07T06:42:17;13.90;;;12.20;;
48205;SDS011;33995;48.202;16.260;2024-03-07T06:44:45;13.23;;;11.67;;
48205;SDS011;33995;48.202;16.260;2024-03-07T06:47:12;12.87;;;11.37;;
48205;SDS011;33995;48.202;16.260;2024-03-07T06:49:40;12.70;;;11.27;;
48205;SDS011;33995;48.202;16.260;2024-03-07T06:52:07;13.20;;;11.47;;
48205;SDS011;33995;48.202;16.260;2024-03-07T06:54:37;13.33;;;11.90;;
48205;SDS011;33995;48.202;16.260;2024-03-07T06:57:04;14.07;;;12.63;;
48205;SDS011;33995;48.202;16.260;2024-03-07T06:59:35;13.43;;;12.00;;
48205;SDS011;33995;48.202;16.260;2024-03-07T07:02:03;13.00;;;11.07;;
48205;SDS011;33995;48.202;16.260;2024-03-07T07:04:30;12.37;;;10.40;;
48205;SDS011;33995;48.202;16.260;2024-03-07T07:07:08;12.20;;;10.90;;
48205;SDS011;33995;48.202;16.260;2024-03-07T07:09:47;12.53;;;11.23;;
48205;SDS011;33995;48.202;16.260;2024-03-07T07:12:17;13.00;;;11.63;;
48205;SDS011;33995;48.202;16.260;2024-03-07T07:14:47;13.60;;;11.37;;
48205;SDS011;33995;48.202;16.260;2024-03-07T07:17:17;12.80;;;11.50;;
48205;SDS011;33995;48.202;16.260;2024-03-07T07:19:58;13.03;;;11.03;;
48205;SDS011;33995;48.202;16.260;2024-03-07T07:22:26;13.13;;;11.27;;
48205;SDS011;33995;48.202;16.260;2024-03-07T07:24:57;12.13;;;10.27;;
48205;SDS011;33995;48.202;16.260;2024-03-07T07:27:50;13.67;;;11.80;;
48205;SDS011;33995;48.202;16.260;2024-03-07T07:30:19;14.23;;;11.90;;
48205;SDS011;33995;48.202;16.260;2024-03-07T07:32:51;13.43;;;12.03;;
48205;SDS011;33995;48.202;16.260;2024-03-07T07:35:21;13.40;;;11.60;;
48205;SDS011;33995;48.202;16.260;2024-03-07T07:37:50;12.80;;;11.40;;
48205;SDS011;33995;48.202;16.260;2024-03-07T07:40:20;17.23;;;14.93;;
48205;SDS011;33995;48.202;16.260;2024-03-07T07:42:50;16.23;;;14.53;;
48205;SDS011;33995;48.202;16.260;2024-03-07T07:45:19;17.00;;;15.23;;
48205;SDS011;33995;48.202;16.260;2024-03-07T07:47:49;13.67;;;12.27;;
48205;SDS011;33995;48.202;16.260;2024-03-07T07:50:22;13.60;;;12.20;;
48205;SDS011;33995;48.202;16.260;2024-03-07T07:52:51;14.70;;;12.00;;
48205;SDS011;33995;48.202;16.260;2024-03-07T07:55:22;13.33;;;11.73;;
48205;SDS011;33995;48.202;16.260;2024-03-07T07:57:57;13.10;;;11.80;;
48205;SDS011;33995;48.202;16.260;2024-03-07T08:00:29;12.73;;;11.43;;
48205;SDS011;33995;48.202;16.260;2024-03-07T08:03:02;13.47;;;11.87;;
48205;SDS011;33995;48.202;16.260;2024-03-07T08:05:31;12.67;;;11.23;;
48205;SDS011;33995;48.202;16.260;2024-03-07T08:08:03;13.13;;;11.70;;
48205;SDS011;33995;48.202;16.260;2024-03-07T08:10:34;13.93;;;12.43;;
48205;SDS011;33995;48.202;16.260;2024-03-07T08:13:04;13.17;;;11.77;;
48205;SDS011;33995;48.202;16.260;2024-03-07T08:15:37;13.20;;;11.73;;
48205;SDS011;33995;48.202;16.260;2024-03-07T08:18:04;13.60;;;12.13;;
48205;SDS011;33995;48.202;16.260;2024-03-07T08:20:39;12.77;;;11.00;;
48205;SDS011;33995;48.202;16.260;2024-03-07T08:23:08;11.97;;;10.53;;
48205;SDS011;33995;48.202;16.260;2024-03-07T08:25:36;12.70;;;11.37;;
48205;SDS011;33995;48.202;16.260;2024-03-07T08:28:06;11.90;;;10.60;;
48205;SDS011;33995;48.202;16.260;2024-03-07T08:30:34;12.83;;;10.70;;
48205;SDS011;33995;48.202;16.260;2024-03-07T08:33:01;12.00;;;10.80;;
48205;SDS011;33995;48.202;16.260;2024-03-07T08:35:33;12.27;;;10.97;;
48205;SDS011;33995;48.202;16.260;2024-03-07T08:38:03;11.60;;;10.27;;
48205;SDS011;33995;48.202;16.260;2024-03-07T08:40:31;10.93;;;9.83;;
48205;SDS011;33995;48.202;16.260;2024-03-07T08:43:00;12.50;;;10.80;;
48205;SDS011;33995;48.202;16.260;2024-03-07T08:45:28;12.27;;;10.20;;
48205;SDS011;33995;48.202;16.260;2024-03-07T08:48:01;13.07;;;11.07;;
48205;SDS011;33995;48.202;16.260;2024-03-07T08:50:34;10.60;;;9.50;;
48205;SDS011;33995;48.202;16.260;2024-03-07T08:53:04;10.80;;;9.70;;
48205;SDS011;33995;48.202;16.260;2024-03-07T08:55:32;10.93;;;9.43;;
48205;SDS011;33995;48.202;16.260;2024-03-07T08:57:59;11.10;;;9.53;;
48205;SDS011;33995;48.202;16.260;2024-03-07T09:00:28;11.40;;;10.20;;
48205;SDS011;33995;48.202;16.260;2024-03-07T09:02:58;11.87;;;10.63;;
48205;SDS011;33995;48.202;16.260;2024-03-07T09:05:29;11.53;;;10.33;;
48205;SDS011;33995;48.202;16.260;2024-03-07T09:08:00;11.67;;;10.27;;
48205;SDS011;33995;48.202;16.260;2024-03-07T09:10:28;12.30;;;10.70;;
48205;SDS011;33995;48.202;16.260;2024-03-07T09:13:01;11.73;;;10.50;;
48205;SDS011;33995;48.202;16.260;2024-03-07T09:15:29;11.50;;;10.30;;
48205;SDS011;33995;48.202;16.260;2024-03-07T09:17:56;11.77;;;10.40;;
48205;SDS011;33995;48.202;16.260;2024-03-07T09:20:35;11.57;;;10.30;;
48205;SDS011;33995;48.202;16.260;2024-03-07T09:23:04;12.47;;;10.40;;
48205;SDS011;33995;48.202;16.260;2024-03-07T09:25:32;11.50;;;10.23;;
48205;SDS011;33995;48.202;16.260;2024-03-07T09:28:01;11.33;;;10.13;;
48205;SDS011;33995;48.202;16.260;2024-03-07T09:30:28;10.73;;;9.43;;
48205;SDS011;33995;48.202;16.260;2024-03-07T09:33:00;11.80;;;10.60;;
48205;SDS011;33995;48.202;16.260;2024-03-07T09:35:28;11.97;;;10.67;;
48205;SDS011;33995;48.202;16.260;2024-03-07T09:37:55;10.77;;;9.67;;
48205;SDS011;33995;48.202;16.260;2024-03-07T09:40:25;11.93;;;10.50;;
48205;SDS011;33995;48.202;16.260;2024-03-07T09:42:53;11.83;;;9.93;;
48205;SDS011;33995;48.202;16.260;2024-03-07T09:45:28;11.93;;;10.63;;
48205;SDS011;33995;48.202;16.260;2024-03-07T09:47:58;11.83;;;10.60;;
48205;SDS011;33995;48.202;16.260;2024-03-07T09:50:26;12.50;;;10.77;;
48205;SDS011;33995;48.202;16.260;2024-03-07T09:52:59;11.27;;;10.07;;
48205;SDS011;33995;48.202;16.260;2024-03-07T09:55:27;11.83;;;10.63;;
48205;SDS011;33995;48.202;16.260;2024-03-07T09:57:54;11.37;;;10.00;;
48205;SDS011;33995;48.202;16.260;2024-03-07T10:00:24;11.73;;;10.43;;
48205;SDS011;33995;48.202;16.260;2024-03-07T10:02:58;12.40;;;10.20;;
48205;SDS011;33995;48.202;16.260;2024-03-07T10:05:32;13.70;;;11.80;;
48205;SDS011;33995;48.202;16.260;2024-03-07T10:08:00;11.97;;;10.63;;
48205;SDS011;33995;48.202;16.260;2024-03-07T10:10:29;13.27;;;11.77;;
48205;SDS011;33995;48.202;16.260;2024-03-07T10:13:01;14.13;;;11.93;;
48205;SDS011;33995;48.202;16.260;2024-03-07T10:15:35;14.13;;;11.87;;
48205;SDS011;33995;48.202;16.260;2024-03-07T10:18:07;13.23;;;11.83;;
48205;SDS011;33995;48.202;16.260;2024-03-07T10:20:36;13.63;;;11.63;;
48205;SDS011;33995;48.202;16.260;2024-03-07T10:23:06;13.40;;;12.00;;
48205;SDS011;33995;48.202;16.260;2024-03-07T10:25:37;14.27;;;12.60;;
48205;SDS011;33995;48.202;16.260;2024-03-07T10:28:05;14.90;;;13.00;;
48205;SDS011;33995;48.202;16.260;2024-03-07T10:30:44;16.03;;;13.70;;
48205;SDS011;33995;48.202;16.260;2024-03-07T10:33:12;15.83;;;13.20;;
48205;SDS011;33995;48.202;16.260;2024-03-07T10:35:40;14.50;;;12.60;;
48205;SDS011;33995;48.202;16.260;2024-03-07T10:38:13;16.07;;;14.00;;
48205;SDS011;33995;48.202;16.260;2024-03-07T10:40:41;15.67;;;13.20;;
48205;SDS011;33995;48.202;16.260;2024-03-07T10:43:10;15.50;;;13.27;;
48205;SDS011;33995;48.202;16.260;2024-03-07T10:45:45;16.40;;;13.77;;
48205;SDS011;33995;48.202;16.260;2024-03-07T10:48:18;15.73;;;13.23;;
48205;SDS011;33995;48.202;16.260;2024-03-07T10:50:58;16.27;;;13.77;;
48205;SDS011;33995;48.202;16.260;2024-03-07T10:56:43;17.37;;;14.57;;
48205;SDS011;33995;48.202;16.260;2024-03-07T10:59:17;18.10;;;14.60;;
48205;SDS011;33995;48.202;16.260;2024-03-07T11:01:53;15.80;;;13.13;;
48205;SDS011;33995;48.202;16.260;2024-03-07T11:04:26;15.97;;;13.37;;
48205;SDS011;33995;48.202;16.260;2024-03-07T11:06:56;15.77;;;13.87;;
48205;SDS011;33995;48.202;16.260;2024-03-07T11:09:25;16.80;;;14.13;;
48205;SDS011;33995;48.202;16.260;2024-03-07T11:12:00;17.13;;;14.43;;
48205;SDS011;33995;48.202;16.260;2024-03-07T11:14:33;15.70;;;13.80;;
48205;SDS011;33995;48.202;16.260;2024-03-07T11:17:04;16.43;;;13.90;;
48205;SDS011;33995;48.202;16.260;2024-03-07T11:19:32;16.93;;;14.07;;
48205;SDS011;33995;48.202;16.260;2024-03-07T11:22:06;17.17;;;14.57;;
48205;SDS011;33995;48.202;16.260;2024-03-07T11:24:43;17.73;;;14.47;;
48205;SDS011;33995;48.202;16.260;2024-03-07T11:27:15;17.43;;;13.63;;
48205;SDS011;33995;48.202;16.260;2024-03-07T11:32:14;16.77;;;13.70;;
48205;SDS011;33995;48.202;16.260;2024-03-07T11:34:42;18.00;;;14.10;;
48205;SDS011;33995;48.202;16.260;2024-03-07T11:37:19;16.87;;;14.53;;
48205;SDS011;33995;48.202;16.260;2024-03-07T11:40:07;15.80;;;14.10;;
48205;SDS011;33995;48.202;16.260;2024-03-07T11:42:35;19.97;;;14.83;;
48205;SDS011;33995;48.202;16.260;2024-03-07T11:45:06;17.53;;;14.77;;
48205;SDS011;33995;48.202;16.260;2024-03-07T11:47:37;17.73;;;15.20;;
48205;SDS011;33995;48.202;16.260;2024-03-07T11:50:06;17.90;;;15.37;;
48205;SDS011;33995;48.202;16.260;2024-03-07T11:52:39;18.90;;;15.60;;
48205;SDS011;33995;48.202;16.260;2024-03-07T11:55:14;20.37;;;16.40;;
48205;SDS011;33995;48.202;16.260;2024-03-07T11:57:42;18.73;;;15.83;;
48205;SDS011;33995;48.202;16.260;2024-03-07T12:00:11;21.40;;;18.23;;
48205;SDS011;33995;48.202;16.260;2024-03-07T12:02:39;18.87;;;15.70;;
48205;SDS011;33995;48.202;16.260;2024-03-07T12:05:07;20.10;;;16.23;;
48205;SDS011;33995;48.202;16.260;2024-03-07T12:07:34;20.47;;;17.23;;
48205;SDS011;33995;48.202;16.260;2024-03-07T12:10:05;24.97;;;20.00;;
48205;SDS011;33995;48.202;16.260;2024-03-07T12:12:33;22.80;;;18.33;;
48205;SDS011;33995;48.202;16.260;2024-03-07T12:15:04;21.63;;;16.70;;
48205;SDS011;33995;48.202;16.260;2024-03-07T12:17:47;20.70;;;17.73;;
48205;SDS011;33995;48.202;16.260;2024-03-07T12:20:16;21.10;;;17.47;;
48205;SDS011;33995;48.202;16.260;2024-03-07T12:23:15;22.83;;;18.60;;
48205;SDS011;33995;48.202;16.260;2024-03-07T12:25:46;22.60;;;18.17;;
48205;SDS011;33995;48.202;16.260;2024-03-07T12:28:17;22.23;;;18.10;;
48205;SDS011;33995;48.202;16.260;2024-03-07T12:30:56;22.73;;;19.47;;
48205;SDS011;33995;48.202;16.260;2024-03-07T12:33:24;26.43;;;19.43;;
48205;SDS011;33995;48.202;16.260;2024-03-07T12:39:55;23.87;;;18.77;;
48205;SDS011;33995;48.202;16.260;2024-03-07T12:43:19;22.57;;;19.03;;
48205;SDS011;33995;48.202;16.260;2024-03-07T12:46:23;23.97;;;19.83;;
48205;SDS011;33995;48.202;16.260;2024-03-07T12:57:08;26.20;;;19.67;;
48205;SDS011;33995;48.202;16.260;2024-03-07T12:59:40;24.13;;;19.90;;
48205;SDS011;33995;48.202;16.260;2024-03-07T13:02:09;23.87;;;19.43;;
48205;SDS011;33995;48.202;16.260;2024-03-07T13:04:37;24.97;;;19.40;;
48205;SDS011;33995;48.202;16.260;2024-03-07T13:07:08;23.73;;;19.80;;
48205;SDS011;33995;48.202;16.260;2024-03-07T13:09:36;25.43;;;19.43;;
48205;SDS011;33995;48.202;16.260;2024-03-07T13:12:10;24.30;;;19.50;;
48205;SDS011;33995;48.202;16.260;2024-03-07T13:14:40;24.70;;;20.00;;
48205;SDS011;33995;48.202;16.260;2024-03-07T13:17:12;26.30;;;20.77;;
48205;SDS011;33995;48.202;16.260;2024-03-07T13:19:40;25.00;;;19.90;;
48205;SDS011;33995;48.202;16.260;2024-03-07T13:22:10;24.07;;;19.80;;
48205;SDS011;33995;48.202;16.260;2024-03-07T13:24:38;23.60;;;19.20;;
48205;SDS011;33995;48.202;16.260;2024-03-07T13:27:09;23.67;;;19.37;;
48205;SDS011;33995;48.202;16.260;2024-03-07T13:29:46;22.83;;;19.43;;
48205;SDS011;33995;48.202;16.260;2024-03-07T13:32:16;23.13;;;19.90;;
48205;SDS011;33995;48.202;16.260;2024-03-07T13:34:44;23.00;;;18.70;;
48205;SDS011;33995;48.202;16.260;2024-03-07T13:37:12;23.57;;;19.30;;
48205;SDS011;33995;48.202;16.260;2024-03-07T13:39:44;22.70;;;18.80;;
48205;SDS011;33995;48.202;16.260;2024-03-07T13:42:13;22.23;;;18.63;;
48205;SDS011;33995;48.202;16.260;2024-03-07T13:44:44;21.03;;;18.23;;
48205;SDS011;33995;48.202;16.260;2024-03-07T13:47:11;23.10;;;19.47;;
48205;SDS011;33995;48.202;16.260;2024-03-07T13:49:38;23.20;;;19.03;;
48205;SDS011;33995;48.202;16.260;2024-03-07T13:52:05;22.27;;;17.60;;
48205;SDS011;33995;48.202;16.260;2024-03-07T13:54:45;21.47;;;18.90;;
48205;SDS011;33995;48.202;16.260;2024-03-07T13:57:29;23.60;;;18.90;;
48205;SDS011;33995;48.202;16.260;2024-03-07T14:06:50;20.97;;;17.33;;
48205;SDS011;33995;48.202;16.260;2024-03-07T14:09:56;23.30;;;20.07;;
48205;SDS011;33995;48.202;16.260;2024-03-07T14:12:59;22.37;;;18.77;;
48205;SDS011;33995;48.202;16.260;2024-03-07T14:18:46;21.77;;;18.83;;
48205;SDS011;33995;48.202;16.260;2024-03-07T14:27:36;22.73;;;19.23;;
48205;SDS011;33995;48.202;16.260;2024-03-07T14:33:07;22.93;;;20.07;;
48205;SDS011;33995;48.202;16.260;2024-03-07T14:41:11;23.70;;;20.57;;
48205;SDS011;33995;48.202;16.260;2024-03-07T14:43:39;22.20;;;19.67;;
48205;SDS011;33995;48.202;16.260;2024-03-07T14:46:11;22.30;;;19.40;;
48205;SDS011;33995;48.202;16.260;2024-03-07T14:48:42;21.60;;;18.00;;
48205;SDS011;33995;48.202;16.260;2024-03-07T14:51:16;21.23;;;18.13;;
48205;SDS011;33995;48.202;16.260;2024-03-07T14:53:44;21.43;;;18.33;;
48205;SDS011;33995;48.202;16.260;2024-03-07T14:56:12;21.87;;;18.73;;
48205;SDS011;33995;48.202;16.260;2024-03-07T14:58:39;23.70;;;18.37;;
48205;SDS011;33995;48.202;16.260;2024-03-07T15:01:07;22.73;;;19.80;;
48205;SDS011;33995;48.202;16.260;2024-03-07T15:03:38;21.33;;;18.77;;
48205;SDS011;33995;48.202;16.260;2024-03-07T15:06:06;21.70;;;18.97;;
48205;SDS011;33995;48.202;16.260;2024-03-07T15:08:35;22.50;;;20.10;;